Time;durP1;ratioP1;P1;durP2;ratioP2;P2;SDS_P1;SDS_P2;PMS_P1;PMS_P2;Temp;Humidity;BMP_temperature;BMP_pressure;BME280_temperature;BME280_humidity;BME280_pressure;Samples;Min_cycle;Max_cycle;Signal;HPM_P1;HPM_P2
2021/04/22 00:00:25;;;;;;;64.73;32.73;;;7.90;99.90;;;;;;4450515;28;657813;-68
2021/04/22 00:03:12;;;;;;;77.80;38.53;;;8.00;99.90;;;;;;4407281;28;658082;-70
2021/04/22 00:05:59;;;;;;;70.30;37.07;;;8.00;99.90;;;;;;4411676;28;657674;-68
2021/04/22 00:08:46;;;;;;;71.63;36.27;;;8.00;99.90;;;;;;4414661;28;657410;-68
2021/04/22 00:11:34;;;;;;;72.43;35.47;;;8.10;99.90;;;;;;4389544;28;657530;-68
2021/04/22 00:14:21;;;;;;;75.77;35.40;;;8.10;99.90;;;;;;4415159;28;657847;-68
2021/04/22 00:17:08;;;;;;;74.00;37.70;;;8.20;99.90;;;;;;4392388;28;657996;-68
2021/04/22 00:19:55;;;;;;;72.45;36.05;;;8.20;99.90;;;;;;4410614;28;658647;-68
2021/04/22 00:22:42;;;;;;;63.50;32.47;;;8.30;99.90;;;;;;4418664;28;658004;-69
2021/04/22 00:25:29;;;;;;;62.17;32.10;;;8.40;99.90;;;;;;4445970;28;657557;-67
2021/04/22 00:28:17;;;;;;;59.77;29.60;;;8.40;99.90;;;;;;4447833;28;658402;-67
2021/04/22 00:31:04;;;;;;;56.67;30.20;;;8.50;99.90;;;;;;4415772;28;658931;-67
2021/04/22 00:33:51;;;;;;;55.23;28.83;;;8.50;99.90;;;;;;4425235;28;658070;-67
2021/04/22 00:36:38;;;;;;;55.07;29.87;;;8.50;99.90;;;;;;4422855;28;657610;-67
2021/04/22 00:39:25;;;;;;;51.93;27.83;;;8.50;99.90;;;;;;4419056;28;657647;-67
2021/04/22 00:42:12;;;;;;;55.17;29.47;;;8.50;99.90;;;;;;4431550;28;657613;-68
2021/04/22 00:45:00;;;;;;;58.10;30.50;;;8.50;99.90;;;;;;4433168;28;657477;-67
2021/04/22 00:47:47;;;;;;;52.53;29.67;;;8.40;99.90;;;;;;4413760;28;657794;-68
2021/04/22 00:50:36;;;;;;;53.87;28.47;;;8.40;99.90;;;;;;4440305;28;658704;-67
2021/04/22 00:53:23;;;;;;;55.10;29.67;;;8.30;99.90;;;;;;4407105;28;658022;-68
2021/04/22 00:56:10;;;;;;;66.17;33.37;;;8.20;99.90;;;;;;4429195;28;659089;-68
2021/04/22 00:58:57;;;;;;;57.53;28.97;;;8.20;99.90;;;;;;4433045;28;658055;-68
2021/04/22 01:01:45;;;;;;;47.20;25.93;;;8.10;99.90;;;;;;4439184;28;657699;-67
2021/04/22 01:04:33;;;;;;;49.97;27.20;;;8.00;99.90;;;;;;4409165;28;657840;-68
2021/04/22 01:07:20;;;;;;;53.17;29.23;;;7.90;99.90;;;;;;4425054;28;658541;-67
2021/04/22 01:10:08;;;;;;;50.43;27.27;;;7.90;99.90;;;;;;4442250;28;657127;-67
2021/04/22 01:12:55;;;;;;;56.57;32.13;;;7.80;99.90;;;;;;4415592;28;657719;-67
2021/04/22 01:15:42;;;;;;;53.77;29.57;;;7.80;99.90;;;;;;4435060;28;658179;-68
2021/04/22 01:18:30;;;;;;;52.93;28.67;;;7.80;99.90;;;;;;4441336;28;657768;-67
2021/04/22 01:21:22;;;;;;;57.93;30.20;;;7.70;99.90;;;;;;4426029;28;658121;-69
2021/04/22 01:24:10;;;;;;;54.50;29.37;;;7.60;99.90;;;;;;4418674;28;658037;-67
2021/04/22 01:26:56;;;;;;;55.87;27.97;;;7.60;99.90;;;;;;4438146;28;657364;-67
2021/04/22 01:29:43;;;;;;;47.53;25.77;;;7.60;99.90;;;;;;4413513;28;657974;-68
2021/04/22 01:32:30;;;;;;;54.17;26.95;;;7.50;99.90;;;;;;4439747;28;658012;-67
2021/04/22 01:35:18;;;;;;;49.15;27.70;;;7.50;99.90;;;;;;4427821;28;657611;-68
2021/04/22 01:38:07;;;;;;;63.30;32.60;;;7.50;99.90;;;;;;4432231;28;658031;-67
2021/04/22 01:40:54;;;;;;;60.10;33.43;;;7.50;99.90;;;;;;4421020;28;658789;-67
2021/04/22 01:43:41;;;;;;;61.00;34.40;;;7.40;99.90;;;;;;4426286;28;657347;-67
2021/04/22 01:46:28;;;;;;;59.10;32.70;;;7.40;99.90;;;;;;4414603;28;657774;-69
2021/04/22 01:49:15;;;;;;;57.27;32.33;;;7.40;99.90;;;;;;4436772;28;659058;-68
2021/04/22 01:52:02;;;;;;;166.20;30.87;;;7.30;99.90;;;;;;4431893;28;657497;-69
2021/04/22 01:54:50;;;;;;;53.43;29.27;;;7.20;99.90;;;;;;4446221;28;659137;-67
2021/04/22 01:57:37;;;;;;;56.97;31.23;;;7.10;99.90;;;;;;4417754;28;657746;-69
2021/04/22 02:00:26;;;;;;;56.83;32.97;;;7.10;99.90;;;;;;4434353;28;657709;-68
2021/04/22 02:03:13;;;;;;;63.20;33.43;;;7.10;99.90;;;;;;4412934;28;657769;-68
2021/04/22 02:06:00;;;;;;;62.90;33.20;;;7.00;99.90;;;;;;4442306;28;657554;-68
2021/04/22 02:08:47;;;;;;;57.90;33.20;;;7.00;99.90;;;;;;4404786;28;657626;-68
2021/04/22 02:11:35;;;;;;;61.87;34.20;;;7.00;99.90;;;;;;4450998;28;657301;-68
2021/04/22 02:14:22;;;;;;;64.87;33.50;;;7.00;99.90;;;;;;4415371;28;657300;-69
2021/04/22 02:17:09;;;;;;;58.77;33.70;;;7.00;99.90;;;;;;4436048;28;657640;-68
2021/04/22 02:19:56;;;;;;;59.97;33.20;;;7.00;99.90;;;;;;4444026;28;657148;-68
2021/04/22 02:22:43;;;;;;;65.17;33.63;;;7.00;99.90;;;;;;4405886;28;657807;-68
2021/04/22 02:25:30;;;;;;;67.83;35.20;;;7.00;99.90;;;;;;4439339;28;658833;-68
2021/04/22 02:28:18;;;;;;;62.97;34.73;;;7.00;99.90;;;;;;4418648;28;658153;-69
2021/04/22 02:31:05;;;;;;;58.67;32.50;;;6.90;99.90;;;;;;4441680;28;657928;-68
2021/04/22 02:33:53;;;;;;;65.73;36.07;;;6.90;99.90;;;;;;4410243;28;657471;-69
2021/04/22 02:36:40;;;;;;;79.60;33.67;;;6.80;99.90;;;;;;4431416;28;658811;-68
2021/04/22 02:39:30;;;;;;;62.57;33.17;;;6.80;99.90;;;;;;4403414;28;658077;-70
2021/04/22 02:42:17;;;;;;;63.60;35.60;;;6.80;99.90;;;;;;4421567;28;657936;-69
2021/04/22 02:45:07;;;;;;;63.30;35.67;;;6.70;99.90;;;;;;4436876;28;657394;-69
2021/04/22 02:47:54;;;;;;;61.20;34.13;;;6.70;99.90;;;;;;4404409;28;658750;-69
2021/04/22 02:50:44;;;;;;;67.93;35.43;;;6.60;99.90;;;;;;4441685;28;657605;-68
2021/04/22 02:53:31;;;;;;;67.20;35.90;;;6.50;99.90;;;;;;4412134;28;657696;-68
2021/04/22 02:56:18;;;;;;;61.53;35.03;;;6.40;99.90;;;;;;4426959;28;658267;-69
2021/04/22 02:59:05;;;;;;;66.43;36.43;;;6.30;99.90;;;;;;4449988;28;657922;-69
2021/04/22 03:01:53;;;;;;;66.97;38.60;;;6.30;99.90;;;;;;4408719;28;658368;-70
2021/04/22 03:04:40;;;;;;;66.13;37.27;;;6.20;99.90;;;;;;4439603;28;657747;-68
2021/04/22 03:07:27;;;;;;;69.27;37.93;;;6.10;99.90;;;;;;4430469;28;657485;-70
2021/04/22 03:10:16;;;;;;;66.00;37.50;;;6.00;99.90;;;;;;4433718;28;657514;-69
2021/04/22 03:13:03;;;;;;;72.23;38.63;;;6.00;99.90;;;;;;4426207;28;657224;-69
2021/04/22 03:15:50;;;;;;;68.57;37.33;;;5.90;99.90;;;;;;4438182;28;658602;-68
2021/04/22 03:18:38;;;;;;;69.43;38.57;;;5.80;99.90;;;;;;4418012;28;657555;-70
2021/04/22 03:21:25;;;;;;;68.90;38.47;;;5.80;99.90;;;;;;4438416;28;658772;-68
2021/04/22 03:24:14;;;;;;;74.17;40.03;;;5.70;99.90;;;;;;4418415;28;657834;-70
2021/04/22 03:27:01;;;;;;;73.20;38.60;;;5.70;99.90;;;;;;4444727;28;657717;-68
2021/04/22 03:29:48;;;;;;;162.40;39.10;;;5.60;99.90;;;;;;4410081;28;657338;-69
2021/04/22 03:32:35;;;;;;;74.50;39.73;;;5.60;99.90;;;;;;4415892;28;658387;-68
2021/04/22 03:35:23;;;;;;;74.90;40.30;;;5.50;99.90;;;;;;4410940;28;658768;-70
2021/04/22 03:38:10;;;;;;;68.67;36.97;;;5.50;99.90;;;;;;4432304;28;658320;-69
2021/04/22 03:40:57;;;;;;;67.03;37.90;;;5.50;99.90;;;;;;4421098;28;657357;-70
2021/04/22 03:43:44;;;;;;;66.53;38.53;;;5.50;99.90;;;;;;4441760;28;657628;-69
2021/04/22 03:46:31;;;;;;;67.07;34.73;;;5.50;99.90;;;;;;4437185;28;656993;-69
2021/04/22 03:49:18;;;;;;;69.77;37.47;;;5.50;99.90;;;;;;4424197;28;657990;-69
2021/04/22 03:52:06;;;;;;;63.80;36.50;;;5.50;99.90;;;;;;4422824;28;657605;-69
2021/04/22 03:54:55;;;;;;;67.65;36.72;;;5.60;99.90;;;;;;4417029;28;657756;-69
2021/04/22 03:57:42;;;;;;;66.63;37.57;;;5.60;99.90;;;;;;4421799;28;657557;-70
2021/04/22 04:00:29;;;;;;;68.17;36.63;;;5.70;99.90;;;;;;4444101;28;657471;-69
2021/04/22 04:03:16;;;;;;;70.77;38.87;;;5.70;99.90;;;;;;4421796;28;657447;-68
2021/04/22 04:06:03;;;;;;;67.93;38.57;;;5.80;99.90;;;;;;4416760;28;657721;-69
2021/04/22 04:08:51;;;;;;;68.33;38.03;;;6.00;99.90;;;;;;4423261;28;658798;-69
2021/04/22 04:11:38;;;;;;;68.47;38.07;;;6.10;99.90;;;;;;4421894;28;657856;-69
2021/04/22 04:14:25;;;;;;;76.77;40.60;;;6.20;99.90;;;;;;4430100;28;658030;-69
2021/04/22 04:17:12;;;;;;;79.65;41.70;;;6.40;99.90;;;;;;4418905;28;657811;-70
2021/04/22 04:19:59;;;;;;;76.82;42.53;;;6.50;99.90;;;;;;4433170;28;657661;-69
2021/04/22 04:22:47;;;;;;;76.53;41.13;;;6.60;99.90;;;;;;4427072;28;658074;-69
2021/04/22 04:25:35;;;;;;;76.83;42.07;;;6.70;99.90;;;;;;4417124;28;658762;-68
2021/04/22 04:28:22;;;;;;;79.30;42.60;;;6.70;99.90;;;;;;4422169;28;657677;-70
2021/04/22 04:31:09;;;;;;;75.90;41.83;;;6.70;99.90;;;;;;4439044;28;657240;-68
2021/04/22 04:33:56;;;;;;;71.70;38.30;;;6.80;99.90;;;;;;4439291;28;658130;-69
2021/04/22 04:36:46;;;;;;;72.60;39.23;;;6.80;99.90;;;;;;4394400;28;657813;-69
2021/04/22 04:39:33;;;;;;;69.67;38.10;;;6.80;99.90;;;;;;4423137;28;657400;-69
2021/04/22 04:42:21;;;;;;;67.33;35.47;;;6.80;99.90;;;;;;4424604;28;658145;-69
2021/04/22 04:45:09;;;;;;;65.80;37.17;;;6.80;99.90;;;;;;4416845;28;657984;-69
2021/04/22 04:47:56;;;;;;;66.83;35.03;;;6.80;99.90;;;;;;4439167;28;657563;-69
2021/04/22 04:50:43;;;;;;;69.47;36.17;;;6.90;99.90;;;;;;4425078;28;658112;-69
2021/04/22 04:53:30;;;;;;;67.50;36.00;;;6.90;99.90;;;;;;4436316;28;658304;-69
2021/04/22 04:56:18;;;;;;;68.10;34.83;;;6.90;99.90;;;;;;4432092;28;657575;-70
2021/04/22 04:59:06;;;;;;;70.53;36.27;;;6.90;99.90;;;;;;4443000;28;658236;-69
2021/04/22 05:01:53;;;;;;;58.30;31.10;;;7.00;99.90;;;;;;4407997;28;657600;-69
2021/04/22 05:04:40;;;;;;;69.97;35.03;;;7.10;99.90;;;;;;4425877;28;659246;-69
2021/04/22 05:07:26;;;;;;;68.53;36.30;;;7.20;99.90;;;;;;4411929;28;657384;-69
2021/04/22 05:10:15;;;;;;;68.73;34.60;;;7.30;99.90;;;;;;4402442;28;657663;-69
2021/04/22 05:13:01;;;;;;;65.87;34.90;;;7.40;99.90;;;;;;4417074;28;657919;-69
2021/04/22 05:15:49;;;;;;;66.03;33.73;;;7.50;99.90;;;;;;4389023;28;657486;-69
2021/04/22 05:18:36;;;;;;;71.25;35.65;;;7.60;99.90;;;;;;4423362;28;657958;-69
2021/04/22 05:21:23;;;;;;;68.30;33.87;;;7.60;99.90;;;;;;4404101;28;657556;-69
2021/04/22 05:24:13;;;;;;;64.53;31.17;;;7.60;99.90;;;;;;4410786;28;658383;-68
2021/04/22 05:27:00;;;;;;;56.20;30.37;;;7.70;99.90;;;;;;4385964;28;658395;-68
2021/04/22 05:29:47;;;;;;;60.93;31.80;;;7.80;99.90;;;;;;4392058;28;657308;-71
2021/04/22 05:32:35;;;;;;;45.13;24.97;;;7.80;99.90;;;;;;4420586;28;658485;-68
2021/04/22 05:35:22;;;;;;;52.83;27.45;;;7.90;99.90;;;;;;4398480;28;658374;-69
2021/04/22 05:38:09;;;;;;;54.38;29.23;;;8.00;99.90;;;;;;4406846;28;657397;-68
2021/04/22 05:40:56;;;;;;;52.07;28.93;;;8.10;99.90;;;;;;4414311;28;657563;-70
2021/04/22 05:43:43;;;;;;;47.23;24.87;;;8.10;99.90;;;;;;4393669;28;657738;-68
2021/04/22 05:46:30;;;;;;;51.77;24.73;;;8.30;99.90;;;;;;4417344;28;658780;-68
2021/04/22 05:49:18;;;;;;;52.80;28.70;;;8.30;99.90;;;;;;4405257;28;657673;-69
2021/04/22 05:52:06;;;;;;;49.80;26.88;;;8.40;99.90;;;;;;4418922;28;658866;-67
2021/04/22 05:54:53;;;;;;;57.43;27.70;;;8.50;99.90;;;;;;4397208;28;658086;-68
2021/04/22 05:57:40;;;;;;;52.67;29.60;;;8.50;99.90;;;;;;4417849;28;657834;-68
2021/04/22 06:00:29;;;;;;;55.07;31.60;;;8.60;99.90;;;;;;4398658;28;658406;-69
2021/04/22 06:03:15;;;;;;;50.37;28.97;;;8.60;99.90;;;;;;4429271;28;657204;-71
2021/04/22 06:06:04;;;;;;;56.37;31.83;;;8.70;99.90;;;;;;4408886;28;657734;-70
2021/04/22 06:08:51;;;;;;;64.87;33.23;;;8.80;99.90;;;;;;4431641;28;657486;-71
2021/04/22 06:11:38;;;;;;;63.43;33.83;;;8.80;99.90;;;;;;4412931;28;657645;-69
2021/04/22 06:14:25;;;;;;;61.40;30.07;;;8.90;99.90;;;;;;4431707;28;658239;-70
2021/04/22 06:17:12;;;;;;;55.63;29.57;;;9.00;99.90;;;;;;4419580;28;659404;-69
2021/04/22 06:19:59;;;;;;;60.43;31.20;;;9.10;99.90;;;;;;4418145;28;657590;-70
2021/04/22 06:22:47;;;;;;;56.53;30.20;;;9.20;99.90;;;;;;4417635;28;656974;-71
2021/04/22 06:25:34;;;;;;;43.23;24.13;;;9.50;99.90;;;;;;4393848;28;657939;-71
2021/04/22 06:28:22;;;;;;;54.73;29.10;;;9.70;99.90;;;;;;4413126;28;658589;-71
2021/04/22 06:31:09;;;;;;;44.87;25.83;;;10.00;99.90;;;;;;4393914;28;658544;-71
2021/04/22 06:33:56;;;;;;;44.87;22.27;;;10.10;99.90;;;;;;4412106;28;659152;-71
2021/04/22 06:36:43;;;;;;;39.78;21.73;;;10.00;99.90;;;;;;4389388;28;658628;-70
2021/04/22 06:39:31;;;;;;;43.93;22.50;;;10.00;99.90;;;;;;4431933;28;659580;-71
2021/04/22 06:42:18;;;;;;;43.30;19.70;;;10.20;99.90;;;;;;4405891;28;658580;-70
2021/04/22 06:45:07;;;;;;;35.63;19.13;;;10.40;99.90;;;;;;4429478;28;659722;-70
2021/04/22 06:47:54;;;;;;;38.60;19.83;;;10.20;99.90;;;;;;4407184;28;661274;-69
2021/04/22 06:50:41;;;;;;;42.43;21.50;;;10.00;99.90;;;;;;4428508;28;659190;-70
2021/04/22 06:53:28;;;;;;;46.73;24.17;;;9.60;99.90;;;;;;4409847;28;658856;-69
2021/04/22 06:56:16;;;;;;;42.73;22.80;;;9.30;99.90;;;;;;4430609;28;658917;-71
2021/04/22 06:59:03;;;;;;;46.57;25.10;;;9.00;99.90;;;;;;4405694;28;657270;-69
2021/04/22 07:01:51;;;;;;;41.40;23.80;;;8.80;99.90;;;;;;4437354;28;659137;-71
2021/04/22 07:04:38;;;;;;;48.97;26.47;;;8.70;99.90;;;;;;4416482;28;657536;-70
2021/04/22 07:07:25;;;;;;;51.80;27.83;;;8.60;99.90;;;;;;4430764;28;658453;-71
2021/04/22 07:10:13;;;;;;;53.17;27.33;;;8.50;99.90;;;;;;4411848;28;658634;-69
2021/04/22 07:13:01;;;;;;;48.13;24.83;;;8.50;99.90;;;;;;4432221;28;658753;-70
2021/04/22 07:15:48;;;;;;;44.17;24.27;;;8.40;99.90;;;;;;4409663;28;657964;-70
2021/04/22 07:18:35;;;;;;;40.83;20.33;;;8.40;99.90;;;;;;4439592;28;658718;-70
2021/04/22 07:21:22;;;;;;;44.50;23.33;;;8.20;99.90;;;;;;4441522;28;657248;-69
2021/04/22 07:24:10;;;;;;;43.73;23.87;;;8.20;99.90;;;;;;4439686;28;657399;-71
2021/04/22 07:26:57;;;;;;;42.83;23.23;;;8.10;99.90;;;;;;4436168;28;657407;-71
2021/04/22 07:29:45;;;;;;;42.13;23.20;;;8.00;99.90;;;;;;4420324;28;658185;-70
2021/04/22 07:32:32;;;;;;;43.43;22.80;;;8.00;99.90;;;;;;4415602;28;657580;-69
2021/04/22 07:35:19;;;;;;;36.53;22.03;;;7.90;99.90;;;;;;4428821;28;658983;-71
2021/04/22 07:38:07;;;;;;;37.47;20.97;;;7.90;99.90;;;;;;4431974;28;657181;-69
2021/04/22 07:40:54;;;;;;;40.70;23.77;;;7.80;99.90;;;;;;4408823;28;658704;-71
2021/04/22 07:43:41;;;;;;;40.95;23.27;;;7.60;99.90;;;;;;4430394;28;657429;-70
2021/04/22 07:46:29;;;;;;;41.27;21.40;;;7.20;99.90;;;;;;4405610;28;658411;-70
2021/04/22 07:49:16;;;;;;;41.73;25.77;;;6.90;99.90;;;;;;4440518;28;658360;-70
2021/04/22 07:52:03;;;;;;;46.90;25.27;;;6.70;99.90;;;;;;4420711;28;657467;-70
2021/04/22 07:54:50;;;;;;;44.78;22.73;;;6.50;99.90;;;;;;4428380;28;658049;-70
2021/04/22 07:57:38;;;;;;;33.65;19.40;;;6.40;99.90;;;;;;4416097;28;657655;-69
2021/04/22 08:00:28;;;;;;;32.47;18.97;;;6.30;99.90;;;;;;4433363;28;658546;-70
2021/04/22 08:03:17;;;;;;;26.53;14.53;;;6.30;99.90;;;;;;4414669;28;658768;-70
2021/04/22 08:06:04;;;;;;;26.67;14.33;;;6.20;99.90;;;;;;4422429;28;657641;-71
2021/04/22 08:08:51;;;;;;;32.30;14.40;;;6.10;99.90;;;;;;4429397;28;657467;-70
2021/04/22 08:11:38;;;;;;;28.23;14.57;;;6.20;99.90;;;;;;4403897;28;657628;-70
2021/04/22 08:14:25;;;;;;;27.50;14.53;;;6.20;99.90;;;;;;4443880;28;658679;-71
2021/04/22 08:17:12;;;;;;;25.93;14.00;;;6.10;99.90;;;;;;4424269;28;657517;-69
2021/04/22 08:20:05;;;;;;;24.17;13.97;;;6.00;99.90;;;;;;4443948;28;657136;-71
2021/04/22 08:22:52;;;;;;;23.97;13.33;;;5.90;99.90;;;;;;4398863;28;658367;-69
2021/04/22 08:25:41;;;;;;;22.20;12.27;;;5.80;99.90;;;;;;4448556;28;658490;-70
2021/04/22 08:28:30;;;;;;;26.03;12.43;;;5.80;99.90;;;;;;4404878;28;657875;-70
2021/04/22 08:31:20;;;;;;;20.63;12.73;;;5.70;99.90;;;;;;4440241;28;657416;-71
2021/04/22 08:34:08;;;;;;;25.73;13.90;;;5.60;99.90;;;;;;4394594;28;658325;-69
2021/04/22 08:36:56;;;;;;;28.53;13.83;;;5.50;99.90;;;;;;4445745;28;657708;-71
2021/04/22 08:47:07;;;;;;;22.27;12.67;;;5.40;99.90;;;;;;4383863;28;658057;-70
2021/04/22 08:49:55;;;;;;;26.40;13.97;;;5.30;99.90;;;;;;4414684;28;657939;-71
2021/04/22 08:52:43;;;;;;;32.57;15.73;;;5.30;99.90;;;;;;4415160;28;657435;-71
2021/04/22 08:55:31;;;;;;;30.17;15.40;;;5.10;99.90;;;;;;4391893;28;658683;-70
2021/04/22 08:58:18;;;;;;;17.53;9.50;;;4.90;99.90;;;;;;4402946;28;657227;-71
2021/04/22 09:01:07;;;;;;;21.63;11.97;;;4.70;99.90;;;;;;4442739;28;657339;-71
2021/04/22 09:03:54;;;;;;;20.67;10.77;;;4.60;99.90;;;;;;4411294;28;658517;-70
2021/04/22 09:06:41;;;;;;;16.17;8.37;;;4.40;99.90;;;;;;4430470;28;657955;-70
2021/04/22 09:09:28;;;;;;;15.77;7.50;;;4.10;99.90;;;;;;4405364;28;656616;-70
2021/04/22 09:12:16;;;;;;;16.97;9.07;;;4.00;99.90;;;;;;4440591;28;657292;-69
2021/04/22 09:15:06;;;;;;;15.03;7.93;;;4.00;99.90;;;;;;4425905;28;657125;-70
2021/04/22 09:17:58;;;;;;;18.57;8.23;;;3.90;99.90;;;;;;4417231;28;656669;-69
2021/04/22 09:20:47;;;;;;;17.77;8.43;;;3.80;99.90;;;;;;4401039;28;657021;-70
2021/04/22 09:23:35;;;;;;;18.93;7.23;;;3.80;99.90;;;;;;4398433;28;657951;-70
2021/04/22 09:26:50;;;;;;;17.23;7.60;;;3.90;99.90;;;;;;4436078;28;656406;-69
2021/04/22 09:29:44;;;;;;;29.33;11.17;;;4.10;99.90;;;;;;4385546;28;657131;-69
2021/04/22 09:32:32;;;;;;;21.13;11.13;;;4.30;99.90;;;;;;4416806;28;657569;-70
2021/04/22 09:35:19;;;;;;;24.87;12.53;;;4.60;99.90;;;;;;4407928;28;657468;-69
2021/04/22 09:38:27;;;;;;;20.98;11.95;;;4.80;99.90;;;;;;4424309;28;658312;-70
2021/04/22 09:41:34;;;;;;;26.30;14.43;;;5.30;99.90;;;;;;4383834;28;657501;-69
2021/04/22 09:44:21;;;;;;;23.27;12.50;;;5.70;99.90;;;;;;4415154;28;657792;-70
2021/04/22 09:47:10;;;;;;;27.92;13.52;;;6.20;99.90;;;;;;4414601;28;657805;-69
2021/04/22 09:50:23;;;;;;;27.97;13.47;;;6.40;99.90;;;;;;4434976;28;658724;-68
2021/04/22 09:53:33;;;;;;;28.07;13.60;;;6.40;99.90;;;;;;4414911;28;658683;-71
2021/04/22 09:56:21;;;;;;;19.90;7.73;;;6.50;99.90;;;;;;4374627;28;657683;-71
2021/04/22 09:59:17;;;;;;;20.73;7.50;;;6.60;99.90;;;;;;4422193;28;656894;-69
2021/04/22 10:02:05;;;;;;;17.70;6.70;;;6.70;99.90;;;;;;4395732;28;657168;-70
2021/04/22 10:04:58;;;;;;;16.73;6.30;;;6.80;99.90;;;;;;4428868;28;656513;-68
2021/04/22 10:07:45;;;;;;;16.80;6.30;;;7.40;99.90;;;;;;4401473;28;657726;-70
2021/04/22 10:10:33;;;;;;;15.17;7.47;;;7.60;99.90;;;;;;4418100;28;656551;-68
2021/04/22 10:13:20;;;;;;;28.50;9.07;;;7.80;99.90;;;;;;4436716;28;658016;-69
2021/04/22 10:16:08;;;;;;;20.17;9.83;;;7.40;99.90;;;;;;4444345;28;656350;-70
2021/04/22 10:18:55;;;;;;;25.50;11.47;;;7.20;99.90;;;;;;4417212;28;657589;-70
2021/04/22 10:21:45;;;;;;;31.73;11.47;;;7.20;99.90;;;;;;4426978;28;657484;-69
2021/04/22 10:24:33;;;;;;;24.97;11.70;;;7.10;99.90;;;;;;4419446;28;658034;-69
2021/04/22 10:27:30;;;;;;;23.90;11.97;;;7.20;99.90;;;;;;4428473;28;658111;-70
2021/04/22 10:30:24;;;;;;;28.27;12.90;;;7.40;99.90;;;;;;4410660;28;657616;-71
2021/04/22 10:33:39;;;;;;;27.55;12.40;;;7.60;99.90;;;;;;4413757;28;658637;-69
2021/04/22 10:36:32;;;;;;;34.90;15.40;;;7.60;99.90;;;;;;4416469;28;657421;-70
2021/04/22 10:39:22;;;;;;;44.03;18.83;;;7.90;99.90;;;;;;4387138;28;660127;-69
2021/04/22 10:42:16;;;;;;;31.73;16.33;;;8.10;99.90;;;;;;4413799;28;659324;-70
2021/04/22 10:45:03;;;;;;;35.63;19.93;;;7.90;99.90;;;;;;4402655;28;657610;-69
2021/04/22 10:47:50;;;;;;;44.40;20.70;;;8.00;99.90;;;;;;4436536;28;659058;-69
2021/04/22 10:50:40;;;;;;;46.67;22.97;;;8.00;99.90;;;;;;4428994;28;657734;-68
2021/04/22 10:53:28;;;;;;;47.33;25.10;;;7.70;99.90;;;;;;4402155;28;657463;-68
2021/04/22 10:56:25;;;;;;;46.50;22.80;;;7.80;99.90;;;;;;4437463;28;659149;-68
2021/04/22 10:59:20;;;;;;;37.20;17.33;;;7.70;99.90;;;;;;4408225;28;657965;-69
2021/04/22 11:02:15;;;;;;;43.23;20.20;;;7.60;99.90;;;;;;4403681;28;658167;-70
2021/04/22 11:05:02;;;;;;;39.70;20.33;;;7.50;99.90;;;;;;4392072;28;658655;-70
2021/04/22 11:08:03;;;;;;;38.00;20.17;;;7.50;99.90;;;;;;4420876;28;658171;-71
2021/04/22 11:10:55;;;;;;;33.97;15.63;;;7.70;99.90;;;;;;4408848;28;657870;-70
2021/04/22 11:13:43;;;;;;;31.60;15.20;;;7.70;99.90;;;;;;4397884;28;657373;-69
2021/04/22 11:16:30;;;;;;;27.27;14.83;;;7.70;99.90;;;;;;4436941;28;658141;-70
2021/04/22 11:19:18;;;;;;;32.73;12.60;;;7.50;99.90;;;;;;4413742;28;657711;-68
2021/04/22 11:22:14;;;;;;;28.70;14.83;;;7.50;99.90;;;;;;4432181;28;658147;-67
2021/04/22 11:25:03;;;;;;;39.23;16.20;;;7.40;99.90;;;;;;4409575;28;657882;-70
2021/04/22 11:27:52;;;;;;;35.30;17.40;;;7.50;99.90;;;;;;4404364;28;658110;-69
2021/04/22 11:30:39;;;;;;;29.37;13.73;;;7.70;99.90;;;;;;4410336;28;657652;-70
2021/04/22 11:33:28;;;;;;;27.50;14.93;;;7.50;99.90;;;;;;4441703;28;658161;-70
2021/04/22 11:36:20;;;;;;;30.93;14.37;;;7.60;99.90;;;;;;4407069;28;658704;-69
2021/04/22 11:39:09;;;;;;;29.43;12.30;;;7.70;99.90;;;;;;4409486;28;657553;-70
2021/04/22 11:41:59;;;;;;;32.50;13.93;;;7.70;99.90;;;;;;4413617;28;658512;-70
2021/04/22 11:44:49;;;;;;;33.47;16.20;;;7.60;99.90;;;;;;4402896;28;657799;-70
2021/04/22 11:47:36;;;;;;;38.43;18.23;;;7.50;99.90;;;;;;4407202;28;658237;-70
2021/04/22 11:50:24;;;;;;;37.03;18.67;;;7.50;99.90;;;;;;4408352;28;657405;-70
2021/04/22 11:53:12;;;;;;;41.43;18.00;;;7.60;99.90;;;;;;4437417;28;658073;-71
2021/04/22 11:56:00;;;;;;;29.27;15.07;;;7.90;99.90;;;;;;4405964;28;658895;-71
2021/04/22 11:58:49;;;;;;;25.23;12.43;;;8.10;99.90;;;;;;4420192;28;657854;-68
2021/04/22 12:01:36;;;;;;;23.23;12.00;;;8.30;99.90;;;;;;4439545;28;658192;-70
2021/04/22 12:04:23;;;;;;;15.50;6.83;;;8.50;99.90;;;;;;4407720;28;657466;-67
2021/04/22 12:07:12;;;;;;;16.30;5.43;;;9.00;99.90;;;;;;4436754;28;657861;-70
2021/04/22 12:09:59;;;;;;;14.93;4.90;;;9.60;99.90;;;;;;4420030;28;657242;-69
2021/04/22 12:12:47;;;;;;;8.50;3.40;;;10.00;99.90;;;;;;4442010;28;656670;-71
2021/04/22 12:15:39;;;;;;;10.57;3.67;;;10.20;99.90;;;;;;4410915;28;657906;-67
2021/04/22 12:18:27;;;;;;;6.57;2.70;;;10.10;98.40;;;;;;4399332;28;657406;-68
2021/04/22 12:21:15;;;;;;;13.10;2.77;;;10.30;92.50;;;;;;4407477;28;657363;-67
2021/04/22 12:24:06;;;;;;;12.73;2.80;;;10.30;90.20;;;;;;4405266;28;657972;-67
2021/04/22 12:26:53;;;;;;;11.67;3.47;;;9.70;82.60;;;;;;4401899;28;658354;-66
2021/04/22 12:29:40;;;;;;;11.07;3.20;;;10.10;88.50;;;;;;4420596;28;658249;-67
2021/04/22 12:32:28;;;;;;;7.43;3.03;;;10.40;86.20;;;;;;4405311;28;657669;-66
2021/04/22 12:35:17;;;;;;;12.70;4.00;;;10.60;82.00;;;;;;4434140;28;657454;-67
2021/04/22 12:38:16;;;;;;;12.17;3.47;;;10.50;89.60;;;;;;4400822;28;659868;-66
2021/04/22 12:41:04;;;;;;;9.93;3.73;;;11.10;89.80;;;;;;4416365;28;658527;-66
2021/04/22 12:43:51;;;;;;;10.67;3.30;;;11.80;84.40;;;;;;4428739;28;656679;-66
2021/04/22 12:46:39;;;;;;;14.83;4.20;;;12.10;77.90;;;;;;4413109;28;657635;-66
2021/04/22 12:49:26;;;;;;;9.63;3.90;;;12.10;70.70;;;;;;4434758;28;657302;-66
2021/04/22 12:52:14;;;;;;;10.70;3.17;;;12.30;69.40;;;;;;4398005;28;656790;-66
2021/04/22 12:55:02;;;;;;;10.13;3.77;;;11.80;71.10;;;;;;4414032;28;657112;-67
2021/04/22 12:57:52;;;;;;;12.30;3.73;;;11.50;70.70;;;;;;4384649;28;658142;-67
2021/04/22 13:00:41;;;;;;;19.53;4.33;;;12.00;70.10;;;;;;4395705;28;657979;-66
2021/04/22 13:03:28;;;;;;;12.53;4.07;;;12.20;72.60;;;;;;4414201;28;657884;-67
2021/04/22 13:06:17;;;;;;;13.33;3.67;;;12.50;70.00;;;;;;4431237;28;658293;-66
2021/04/22 13:09:06;;;;;;;11.27;3.83;;;13.00;67.20;;;;;;4404288;28;658591;-67
2021/04/22 13:11:53;;;;;;;16.43;4.57;;;13.30;70.00;;;;;;4411265;28;657306;-67
2021/04/22 13:14:40;;;;;;;9.80;3.87;;;13.50;69.10;;;;;;4442575;28;658568;-67
2021/04/22 13:17:28;;;;;;;14.00;4.30;;;12.90;64.70;;;;;;4407388;28;656741;-67
2021/04/22 13:20:22;;;;;;;12.33;3.97;;;12.60;66.10;;;;;;4431885;28;658735;-66
2021/04/22 13:23:11;;;;;;;10.23;4.40;;;12.70;65.40;;;;;;4397028;28;657923;-66
2021/04/22 13:25:58;;;;;;;8.73;3.50;;;13.10;63.80;;;;;;4413634;28;657664;-66
2021/04/22 13:28:45;;;;;;;10.65;3.88;;;13.10;61.10;;;;;;4446033;28;657648;-66
2021/04/22 13:31:32;;;;;;;9.90;4.00;;;13.00;62.10;;;;;;4424100;28;657762;-67
2021/04/22 13:34:20;;;;;;;8.30;3.67;;;13.00;60.20;;;;;;4436550;28;656699;-66
2021/04/22 13:37:07;;;;;;;12.50;4.53;;;13.30;62.90;;;;;;4422040;28;656439;-67
2021/04/22 13:39:55;;;;;;;8.03;4.17;;;13.20;59.50;;;;;;4438256;28;657332;-66
2021/04/22 13:42:43;;;;;;;14.40;4.83;;;12.80;59.30;;;;;;4422035;28;656816;-67
2021/04/22 13:45:32;;;;;;;14.43;5.07;;;12.50;62.30;;;;;;4451190;28;658174;-67
2021/04/22 13:48:20;;;;;;;16.13;4.70;;;12.60;67.00;;;;;;4411530;28;658801;-66
2021/04/22 13:51:11;;;;;;;15.07;4.50;;;12.60;60.80;;;;;;4422793;28;657929;-66
2021/04/22 13:54:05;;;;;;;13.90;4.23;;;12.50;63.10;;;;;;4416941;28;658251;-67
2021/04/22 13:56:56;;;;;;;7.90;3.27;;;12.80;59.30;;;;;;4390177;28;658200;-66
2021/04/22 13:59:43;;;;;;;8.23;3.53;;;13.00;57.40;;;;;;4417296;28;656851;-67
2021/04/22 14:02:31;;;;;;;14.20;3.93;;;13.10;61.60;;;;;;4439366;28;656975;-70
2021/04/22 14:05:19;;;;;;;10.83;4.43;;;12.40;58.70;;;;;;4430635;28;657596;-70
2021/04/22 14:08:06;;;;;;;12.23;4.18;;;12.60;59.10;;;;;;4415992;28;657498;-72
2021/04/22 14:10:54;;;;;;;10.90;3.70;;;12.80;59.60;;;;;;4406956;28;657321;-71
2021/04/22 14:13:42;;;;;;;10.70;3.87;;;12.90;55.70;;;;;;4438830;28;657668;-70
2021/04/22 14:16:29;;;;;;;6.70;2.90;;;12.90;57.60;;;;;;4418092;28;657894;-67
2021/04/22 14:19:17;;;;;;;8.07;3.47;;;12.60;55.40;;;;;;4443906;28;656232;-69
2021/04/22 14:22:06;;;;;;;14.77;4.00;;;12.50;55.10;;;;;;4418893;28;657127;-71